OAL117 LOWI-LGIO
Flight info
| Callsign | OAL117 |
|---|---|
| Flight time | 1h 36m |
| Altitude | 37000 |
| Route | BRENO DCT KEBBU DCT OKLAX DCT VAKSU DCT DIMIS |
| Aircraft | A320/M-SDE3FGHIRWY/LB1 |
Departure
| Time | 2026-04-26 13:09 |
|---|---|
| Airport | Innsbruck Airport (LOWI) |
Arrival
| Time | 2026-04-26 14:45 |
|---|---|
| Airport | Ioannina King Pyrrhus National Airport (LGIO) |
| Time | Latitude | Longitude | Altitude | Speed | Heading |
|---|---|---|---|---|---|
| 2026-04-26 12:56 | 47.25823 | 11.35052 | 1899 ft | 0 kts | 170° |
| 2026-04-26 13:00 | 47.25829 | 11.35051 | 1899 ft | 4 kts | 169° |
| 2026-04-26 13:01 | 47.25853 | 11.35044 | 1887 ft | 4 kts | 186° |
| 2026-04-26 13:01 | 47.25875 | 11.35058 | 1892 ft | 4 kts | 237° |
| 2026-04-26 13:01 | 47.25878 | 11.35052 | 1890 ft | 3 kts | 263° |
| 2026-04-26 13:01 | 47.25876 | 11.35025 | 1890 ft | 0 kts | 263° |
| 2026-04-26 13:04 | 47.25875 | 11.35012 | 1899 ft | 4 kts | 261° |
| 2026-04-26 13:04 | 47.25863 | 11.34928 | 1893 ft | 13 kts | 257° |
| 2026-04-26 13:04 | 47.25843 | 11.34768 | 1893 ft | 18 kts | 260° |
| 2026-04-26 13:05 | 47.25826 | 11.34587 | 1899 ft | 18 kts | 264° |
| 2026-04-26 13:05 | 47.25803 | 11.34399 | 1890 ft | 19 kts | 257° |
| 2026-04-26 13:05 | 47.25782 | 11.34197 | 1891 ft | 21 kts | 262° |
| 2026-04-26 13:05 | 47.25773 | 11.33980 | 1896 ft | 21 kts | 288° |
| 2026-04-26 13:06 | 47.25826 | 11.33832 | 1889 ft | 16 kts | 301° |
| 2026-04-26 13:06 | 47.25887 | 11.33707 | 1904 ft | 15 kts | 307° |
| 2026-04-26 13:06 | 47.25927 | 11.33571 | 1900 ft | 15 kts | 278° |
| 2026-04-26 13:06 | 47.25912 | 11.33400 | 1902 ft | 19 kts | 259° |
| 2026-04-26 13:07 | 47.25872 | 11.33211 | 1902 ft | 20 kts | 226° |
| 2026-04-26 13:07 | 47.25867 | 11.33127 | 1889 ft | 4 kts | 354° |
| 2026-04-26 13:07 | 47.25880 | 11.33146 | 1899 ft | 0 kts | 61° |
| 2026-04-26 13:07 | 47.25880 | 11.33148 | 1901 ft | 0 kts | 62° |
| 2026-04-26 13:08 | 47.25881 | 11.33156 | 1902 ft | 3 kts | 79° |
| 2026-04-26 13:08 | 47.25928 | 11.33543 | 1900 ft | 75 kts | 80° |
| 2026-04-26 13:08 | 47.26041 | 11.34607 | 1897 ft | 132 kts | 81° |
| 2026-04-26 13:08 | 47.26191 | 11.36105 | 2136 ft | 152 kts | 81° |
| 2026-04-26 13:09 | 47.26345 | 11.37662 | 2708 ft | 157 kts | 83° |
| 2026-04-26 13:09 | 47.26381 | 11.39325 | 3295 ft | 166 kts | 90° |
| 2026-04-26 13:09 | 47.26478 | 11.41101 | 3837 ft | 177 kts | 79° |
| 2026-04-26 13:09 | 47.26691 | 11.42864 | 4528 ft | 177 kts | 78° |
| 2026-04-26 13:10 | 47.26968 | 11.44651 | 5097 ft | 180 kts | 65° |
| 2026-04-26 13:10 | 47.27476 | 11.46357 | 5724 ft | 182 kts | 66° |
| 2026-04-26 13:10 | 47.27972 | 11.48073 | 6414 ft | 181 kts | 66° |
| 2026-04-26 13:10 | 47.28473 | 11.49778 | 7016 ft | 182 kts | 66° |
| 2026-04-26 13:11 | 47.28970 | 11.51484 | 7560 ft | 184 kts | 66° |
| 2026-04-26 13:11 | 47.29476 | 11.53237 | 8087 ft | 188 kts | 67° |
| 2026-04-26 13:11 | 47.29989 | 11.55017 | 8591 ft | 190 kts | 67° |
| 2026-04-26 13:11 | 47.30509 | 11.56830 | 9096 ft | 194 kts | 67° |
| 2026-04-26 13:12 | 47.31038 | 11.58679 | 9615 ft | 197 kts | 67° |
| 2026-04-26 13:12 | 47.31553 | 11.60568 | 10153 ft | 200 kts | 75° |
| 2026-04-26 13:12 | 47.31536 | 11.62581 | 10587 ft | 199 kts | 113° |
| 2026-04-26 13:12 | 47.30723 | 11.64184 | 11078 ft | 197 kts | 149° |
| 2026-04-26 13:13 | 47.29446 | 11.64784 | 11572 ft | 195 kts | 184° |
| 2026-04-26 13:13 | 47.28177 | 11.64205 | 12042 ft | 193 kts | 219° |
| 2026-04-26 13:13 | 47.27362 | 11.62678 | 12477 ft | 193 kts | 252° |
| 2026-04-26 13:13 | 47.26987 | 11.60773 | 13022 ft | 195 kts | 255° |
| 2026-04-26 13:14 | 47.26620 | 11.58849 | 13576 ft | 196 kts | 255° |
| 2026-04-26 13:14 | 47.26246 | 11.56911 | 14082 ft | 198 kts | 255° |
| 2026-04-26 13:14 | 47.25870 | 11.54958 | 14551 ft | 199 kts | 255° |
| 2026-04-26 13:14 | 47.25489 | 11.52983 | 15021 ft | 201 kts | 255° |
| 2026-04-26 13:15 | 47.25103 | 11.50999 | 15501 ft | 202 kts | 255° |
| 2026-04-26 13:15 | 47.24715 | 11.49000 | 16010 ft | 204 kts | 255° |
| 2026-04-26 13:15 | 47.24323 | 11.46985 | 16491 ft | 206 kts | 255° |
| 2026-04-26 13:15 | 47.24061 | 11.45635 | 16820 ft | 207 kts | 255° |
| 2026-04-26 13:16 | 47.23517 | 11.42897 | 17495 ft | 209 kts | 250° |
| 2026-04-26 13:16 | 47.22729 | 11.41124 | 17942 ft | 214 kts | 223° |
| 2026-04-26 13:16 | 47.21404 | 11.40048 | 18260 ft | 228 kts | 194° |
| 2026-04-26 13:16 | 47.19752 | 11.39799 | 18403 ft | 248 kts | 186° |
| 2026-04-26 13:17 | 47.16057 | 11.39455 | 18663 ft | 283 kts | 185° |
| 2026-04-26 13:17 | 47.14018 | 11.39258 | 18769 ft | 303 kts | 185° |
| 2026-04-26 13:18 | 47.09528 | 11.38815 | 19014 ft | 342 kts | 185° |
| 2026-04-26 13:18 | 47.07090 | 11.38573 | 19134 ft | 359 kts | 185° |
| 2026-04-26 13:18 | 47.01895 | 11.38066 | 19438 ft | 392 kts | 184° |
| 2026-04-26 13:19 | 46.99156 | 11.38485 | 19875 ft | 401 kts | 165° |
| 2026-04-26 13:19 | 46.96631 | 11.40286 | 20414 ft | 408 kts | 144° |
| 2026-04-26 13:19 | 46.94577 | 11.43198 | 20957 ft | 413 kts | 133° |
| 2026-04-26 13:19 | 46.92645 | 11.46347 | 21517 ft | 417 kts | 132° |
| 2026-04-26 13:20 | 46.90717 | 11.49542 | 22029 ft | 420 kts | 132° |
| 2026-04-26 13:20 | 46.88775 | 11.52779 | 22528 ft | 424 kts | 132° |
| 2026-04-26 13:20 | 46.86814 | 11.56036 | 23010 ft | 428 kts | 132° |
| 2026-04-26 13:20 | 46.84858 | 11.59268 | 23502 ft | 431 kts | 132° |
| 2026-04-26 13:21 | 46.82854 | 11.62562 | 23919 ft | 435 kts | 132° |
| 2026-04-26 13:21 | 46.81493 | 11.64791 | 24183 ft | 437 kts | 132° |
| 2026-04-26 13:21 | 46.78793 | 11.69195 | 24696 ft | 440 kts | 132° |
| 2026-04-26 13:21 | 46.76743 | 11.72534 | 25094 ft | 443 kts | 133° |
| 2026-04-26 13:22 | 46.74684 | 11.75883 | 25477 ft | 445 kts | 132° |
| 2026-04-26 13:22 | 46.72608 | 11.79260 | 25880 ft | 448 kts | 133° |
| 2026-04-26 13:22 | 46.70525 | 11.82645 | 26262 ft | 450 kts | 133° |
| 2026-04-26 13:22 | 46.68420 | 11.86058 | 26639 ft | 452 kts | 133° |
| 2026-04-26 13:23 | 46.66309 | 11.89478 | 27014 ft | 455 kts | 133° |
| 2026-04-26 13:23 | 46.64184 | 11.92918 | 27388 ft | 457 kts | 133° |
| 2026-04-26 13:23 | 46.62047 | 11.96371 | 27744 ft | 460 kts | 133° |
| 2026-04-26 13:23 | 46.59901 | 11.99835 | 28129 ft | 462 kts | 133° |
| 2026-04-26 13:24 | 46.57767 | 12.03274 | 28476 ft | 465 kts | 133° |
| 2026-04-26 13:24 | 46.55563 | 12.06816 | 28839 ft | 468 kts | 133° |
| 2026-04-26 13:24 | 46.53399 | 12.10286 | 29169 ft | 470 kts | 133° |
| 2026-04-26 13:24 | 46.51198 | 12.13824 | 29502 ft | 473 kts | 133° |
| 2026-04-26 13:25 | 46.48987 | 12.17380 | 29961 ft | 472 kts | 133° |
| 2026-04-26 13:25 | 46.46788 | 12.20908 | 30413 ft | 471 kts | 133° |
| 2026-04-26 13:25 | 46.44586 | 12.24429 | 30860 ft | 470 kts | 133° |
| 2026-04-26 13:25 | 46.42381 | 12.27944 | 31303 ft | 468 kts | 133° |
| 2026-04-26 13:26 | 46.40222 | 12.31384 | 31735 ft | 466 kts | 133° |
| 2026-04-26 13:26 | 46.38040 | 12.34858 | 32168 ft | 465 kts | 133° |
| 2026-04-26 13:26 | 46.35865 | 12.38317 | 32618 ft | 464 kts | 133° |
| 2026-04-26 13:26 | 46.33696 | 12.41769 | 33104 ft | 462 kts | 133° |
| 2026-04-26 13:27 | 46.31537 | 12.45204 | 33584 ft | 460 kts | 134° |
| 2026-04-26 13:27 | 46.29385 | 12.48622 | 34065 ft | 459 kts | 134° |
| 2026-04-26 13:27 | 46.27239 | 12.52023 | 34516 ft | 457 kts | 134° |
| 2026-04-26 13:27 | 46.25094 | 12.55411 | 34896 ft | 456 kts | 134° |
| 2026-04-26 13:28 | 46.22952 | 12.58788 | 35258 ft | 455 kts | 134° |
| 2026-04-26 13:28 | 46.20830 | 12.62131 | 35614 ft | 455 kts | 134° |
| 2026-04-26 13:28 | 46.18694 | 12.65493 | 35954 ft | 454 kts | 134° |
| 2026-04-26 13:28 | 46.16555 | 12.68861 | 36277 ft | 454 kts | 134° |
| 2026-04-26 13:29 | 46.14418 | 12.72219 | 36587 ft | 454 kts | 134° |
| 2026-04-26 13:29 | 46.12975 | 12.74485 | 36793 ft | 453 kts | 134° |
| 2026-04-26 13:29 | 46.10143 | 12.78929 | 37066 ft | 454 kts | 134° |
| 2026-04-26 13:30 | 46.05829 | 12.85677 | 37087 ft | 458 kts | 134° |
| 2026-04-26 13:30 | 46.01515 | 12.92410 | 37082 ft | 459 kts | 134° |
| 2026-04-26 13:31 | 45.97906 | 12.98042 | 37084 ft | 459 kts | 134° |
| 2026-04-26 13:31 | 45.93573 | 13.04783 | 37082 ft | 459 kts | 134° |
| 2026-04-26 13:32 | 45.89218 | 13.11519 | 37086 ft | 460 kts | 134° |
| 2026-04-26 13:32 | 45.84859 | 13.18240 | 37089 ft | 460 kts | 134° |
| 2026-04-26 13:33 | 45.80496 | 13.24970 | 37093 ft | 461 kts | 134° |
| 2026-04-26 13:33 | 45.76128 | 13.31710 | 37091 ft | 461 kts | 134° |
| 2026-04-26 13:34 | 45.71756 | 13.38436 | 37095 ft | 461 kts | 134° |
| 2026-04-26 13:34 | 45.67386 | 13.45114 | 37100 ft | 462 kts | 134° |
| 2026-04-26 13:35 | 45.62986 | 13.51813 | 37122 ft | 462 kts | 134° |
| 2026-04-26 13:35 | 45.58565 | 13.58474 | 37124 ft | 462 kts | 135° |
| 2026-04-26 13:36 | 45.54127 | 13.65104 | 37123 ft | 462 kts | 135° |
| 2026-04-26 13:36 | 45.49676 | 13.71738 | 37128 ft | 462 kts | 135° |
| 2026-04-26 13:37 | 45.45233 | 13.78343 | 37124 ft | 462 kts | 135° |
| 2026-04-26 13:37 | 45.40777 | 13.84957 | 37118 ft | 462 kts | 135° |
| 2026-04-26 13:38 | 45.36316 | 13.91563 | 37117 ft | 462 kts | 135° |
| 2026-04-26 13:38 | 45.31863 | 13.98154 | 37115 ft | 462 kts | 135° |
| 2026-04-26 13:39 | 45.27403 | 14.04735 | 37109 ft | 462 kts | 135° |
| 2026-04-26 13:39 | 45.22963 | 14.11250 | 37101 ft | 462 kts | 135° |
| 2026-04-26 13:40 | 45.18489 | 14.17809 | 37104 ft | 462 kts | 135° |
| 2026-04-26 13:40 | 45.14002 | 14.24379 | 37100 ft | 462 kts | 135° |
| 2026-04-26 13:41 | 45.09539 | 14.30892 | 37102 ft | 462 kts | 135° |
| 2026-04-26 13:41 | 45.05047 | 14.37425 | 37101 ft | 462 kts | 135° |
| 2026-04-26 13:42 | 45.00547 | 14.43956 | 37106 ft | 462 kts | 135° |
| 2026-04-26 13:42 | 44.96059 | 14.50465 | 37109 ft | 462 kts | 135° |
| 2026-04-26 13:43 | 44.91567 | 14.56959 | 37109 ft | 462 kts | 135° |
| 2026-04-26 13:43 | 44.87085 | 14.63414 | 37115 ft | 462 kts | 135° |
| 2026-04-26 13:44 | 44.82586 | 14.69888 | 37122 ft | 462 kts | 135° |
| 2026-04-26 13:44 | 44.78077 | 14.76361 | 37109 ft | 462 kts | 135° |
| 2026-04-26 13:45 | 44.73559 | 14.82826 | 37114 ft | 462 kts | 135° |
| 2026-04-26 13:45 | 44.69072 | 14.89239 | 37117 ft | 462 kts | 135° |
| 2026-04-26 13:46 | 44.64554 | 14.95694 | 37123 ft | 462 kts | 135° |
| 2026-04-26 13:46 | 44.60024 | 15.02132 | 37117 ft | 462 kts | 135° |
| 2026-04-26 13:47 | 44.55522 | 15.08516 | 37119 ft | 462 kts | 135° |
| 2026-04-26 13:47 | 44.50996 | 15.14920 | 37122 ft | 462 kts | 135° |
| 2026-04-26 13:48 | 44.46473 | 15.21318 | 37117 ft | 462 kts | 135° |
| 2026-04-26 13:48 | 44.41948 | 15.27699 | 37115 ft | 462 kts | 135° |
| 2026-04-26 13:49 | 44.37408 | 15.34079 | 37111 ft | 462 kts | 135° |
| 2026-04-26 13:49 | 44.32886 | 15.40419 | 37105 ft | 462 kts | 135° |
| 2026-04-26 13:50 | 44.28347 | 15.46763 | 37109 ft | 461 kts | 135° |
| 2026-04-26 13:50 | 44.23822 | 15.53066 | 37109 ft | 461 kts | 135° |
| 2026-04-26 13:51 | 44.19279 | 15.59384 | 37101 ft | 461 kts | 135° |
| 2026-04-26 13:51 | 44.14729 | 15.65716 | 37108 ft | 461 kts | 135° |
| 2026-04-26 13:52 | 44.10172 | 15.72033 | 37103 ft | 461 kts | 135° |
| 2026-04-26 13:52 | 44.05617 | 15.78328 | 37093 ft | 461 kts | 135° |
| 2026-04-26 13:53 | 44.01083 | 15.84587 | 37100 ft | 461 kts | 135° |
| 2026-04-26 13:53 | 43.96522 | 15.90862 | 37092 ft | 461 kts | 135° |
| 2026-04-26 13:54 | 43.91955 | 15.97136 | 37093 ft | 461 kts | 135° |
| 2026-04-26 13:54 | 43.87384 | 16.03394 | 37093 ft | 461 kts | 136° |
| 2026-04-26 13:55 | 43.81341 | 16.11774 | 37090 ft | 462 kts | 135° |
| 2026-04-26 13:56 | 43.73852 | 16.22303 | 37090 ft | 461 kts | 135° |
| 2026-04-26 13:56 | 43.69323 | 16.28613 | 37093 ft | 462 kts | 135° |
| 2026-04-26 13:57 | 43.64800 | 16.34880 | 37095 ft | 462 kts | 135° |
| 2026-04-26 13:57 | 43.60251 | 16.41181 | 37096 ft | 462 kts | 135° |
| 2026-04-26 13:58 | 43.55760 | 16.47388 | 37097 ft | 462 kts | 135° |
| 2026-04-26 13:58 | 43.51209 | 16.53664 | 37095 ft | 462 kts | 135° |
| 2026-04-26 13:59 | 43.46654 | 16.59925 | 37097 ft | 462 kts | 135° |
| 2026-04-26 13:59 | 43.42098 | 16.66187 | 37100 ft | 462 kts | 135° |
| 2026-04-26 14:00 | 43.33010 | 16.78620 | 37103 ft | 462 kts | 136° |
| 2026-04-26 14:01 | 43.28436 | 16.84845 | 37107 ft | 462 kts | 136° |
| 2026-04-26 14:01 | 43.23868 | 16.91051 | 37102 ft | 462 kts | 136° |
| 2026-04-26 14:02 | 43.19293 | 16.97269 | 37105 ft | 462 kts | 136° |
| 2026-04-26 14:02 | 43.14745 | 17.03433 | 37108 ft | 463 kts | 136° |
| 2026-04-26 14:03 | 43.10164 | 17.09635 | 37106 ft | 463 kts | 136° |
| 2026-04-26 14:03 | 43.05565 | 17.15850 | 37099 ft | 463 kts | 136° |
| 2026-04-26 14:04 | 43.00994 | 17.21993 | 37103 ft | 463 kts | 136° |
| 2026-04-26 14:04 | 42.96388 | 17.28178 | 37106 ft | 463 kts | 136° |
| 2026-04-26 14:05 | 42.91774 | 17.34343 | 37112 ft | 463 kts | 136° |
| 2026-04-26 14:05 | 42.87161 | 17.40490 | 37103 ft | 463 kts | 136° |
| 2026-04-26 14:06 | 42.82551 | 17.46638 | 37101 ft | 463 kts | 136° |
| 2026-04-26 14:06 | 42.77975 | 17.52741 | 37103 ft | 463 kts | 137° |
| 2026-04-26 14:07 | 42.73362 | 17.58874 | 37098 ft | 463 kts | 137° |
| 2026-04-26 14:07 | 42.68742 | 17.65005 | 37101 ft | 464 kts | 137° |
| 2026-04-26 14:08 | 42.64111 | 17.71118 | 37106 ft | 464 kts | 137° |
| 2026-04-26 14:08 | 42.59481 | 17.77212 | 37103 ft | 464 kts | 137° |
| 2026-04-26 14:09 | 42.54846 | 17.83319 | 37097 ft | 464 kts | 137° |
| 2026-04-26 14:09 | 42.50231 | 17.89384 | 37107 ft | 464 kts | 137° |
| 2026-04-26 14:10 | 42.45575 | 17.95476 | 37103 ft | 465 kts | 137° |
| 2026-04-26 14:10 | 42.40907 | 18.01569 | 37102 ft | 465 kts | 137° |
| 2026-04-26 14:11 | 42.33935 | 18.10676 | 37107 ft | 466 kts | 137° |
| 2026-04-26 14:11 | 42.30051 | 18.15738 | 37109 ft | 466 kts | 138° |
| 2026-04-26 14:12 | 42.25375 | 18.21802 | 37112 ft | 466 kts | 138° |
| 2026-04-26 14:12 | 42.20693 | 18.27867 | 37113 ft | 466 kts | 138° |
| 2026-04-26 14:13 | 42.13686 | 18.36915 | 37106 ft | 466 kts | 138° |
| 2026-04-26 14:14 | 42.08998 | 18.42953 | 37105 ft | 466 kts | 138° |
| 2026-04-26 14:14 | 42.04339 | 18.48931 | 37107 ft | 466 kts | 138° |
| 2026-04-26 14:15 | 41.99605 | 18.54872 | 37107 ft | 465 kts | 141° |
| 2026-04-26 14:15 | 41.94641 | 18.60432 | 37105 ft | 464 kts | 143° |
| 2026-04-26 14:16 | 41.89576 | 18.65829 | 37107 ft | 464 kts | 143° |
| 2026-04-26 14:16 | 41.84542 | 18.71268 | 37107 ft | 464 kts | 142° |
| 2026-04-26 14:17 | 41.79560 | 18.76767 | 37105 ft | 464 kts | 142° |
| 2026-04-26 14:17 | 41.74578 | 18.82271 | 37108 ft | 464 kts | 142° |
| 2026-04-26 14:18 | 41.69577 | 18.87752 | 37108 ft | 464 kts | 143° |
| 2026-04-26 14:18 | 41.64596 | 18.93168 | 37103 ft | 464 kts | 143° |
| 2026-04-26 14:19 | 41.59581 | 18.98611 | 37104 ft | 464 kts | 143° |
| 2026-04-26 14:19 | 41.54577 | 19.04055 | 37105 ft | 463 kts | 143° |
| 2026-04-26 14:20 | 41.49581 | 19.09487 | 37100 ft | 463 kts | 143° |
| 2026-04-26 14:20 | 41.44638 | 19.14849 | 37101 ft | 463 kts | 143° |
| 2026-04-26 14:21 | 41.39631 | 19.20267 | 37100 ft | 463 kts | 143° |
| 2026-04-26 14:21 | 41.34620 | 19.25671 | 37098 ft | 463 kts | 143° |
| 2026-04-26 14:22 | 41.29641 | 19.31024 | 37099 ft | 463 kts | 143° |
| 2026-04-26 14:22 | 41.24609 | 19.36424 | 37100 ft | 463 kts | 143° |
| 2026-04-26 14:23 | 41.19601 | 19.41790 | 37096 ft | 462 kts | 143° |
| 2026-04-26 14:23 | 41.14616 | 19.47134 | 37096 ft | 463 kts | 143° |
| 2026-04-26 14:24 | 41.09592 | 19.52499 | 37095 ft | 463 kts | 143° |
| 2026-04-26 14:24 | 41.04566 | 19.57847 | 37091 ft | 463 kts | 143° |
| 2026-04-26 14:25 | 40.99561 | 19.63159 | 37088 ft | 463 kts | 143° |
| 2026-04-26 14:25 | 40.94538 | 19.68502 | 37090 ft | 463 kts | 143° |
| 2026-04-26 14:26 | 40.89507 | 19.73836 | 37084 ft | 463 kts | 143° |
| 2026-04-26 14:26 | 40.84468 | 19.79167 | 37083 ft | 463 kts | 144° |
| 2026-04-26 14:27 | 40.79433 | 19.84467 | 37076 ft | 462 kts | 144° |
| 2026-04-26 14:27 | 40.74427 | 19.89732 | 37071 ft | 462 kts | 144° |
| 2026-04-26 14:28 | 40.69392 | 19.95028 | 37061 ft | 463 kts | 144° |
| 2026-04-26 14:28 | 40.66867 | 19.97681 | 36837 ft | 463 kts | 144° |
| 2026-04-26 14:28 | 40.64352 | 20.00316 | 36573 ft | 462 kts | 144° |
| 2026-04-26 14:28 | 40.61824 | 20.02959 | 35969 ft | 464 kts | 144° |
| 2026-04-26 14:29 | 40.59279 | 20.05619 | 35156 ft | 467 kts | 144° |
| 2026-04-26 14:29 | 40.56739 | 20.08270 | 34295 ft | 472 kts | 144° |
| 2026-04-26 14:29 | 40.54142 | 20.10978 | 33286 ft | 477 kts | 144° |
| 2026-04-26 14:29 | 40.51533 | 20.13698 | 32290 ft | 480 kts | 144° |
| 2026-04-26 14:30 | 40.48900 | 20.16444 | 31276 ft | 484 kts | 144° |
| 2026-04-26 14:30 | 40.46256 | 20.19201 | 30262 ft | 486 kts | 144° |
| 2026-04-26 14:30 | 40.43574 | 20.21989 | 29093 ft | 490 kts | 143° |
| 2026-04-26 14:30 | 40.40963 | 20.24700 | 28645 ft | 478 kts | 143° |
| 2026-04-26 14:31 | 40.38364 | 20.27398 | 27915 ft | 473 kts | 143° |
| 2026-04-26 14:31 | 40.35787 | 20.30073 | 27225 ft | 468 kts | 143° |
| 2026-04-26 14:31 | 40.33240 | 20.32714 | 26537 ft | 463 kts | 143° |
| 2026-04-26 14:31 | 40.30712 | 20.35328 | 25846 ft | 460 kts | 143° |
| 2026-04-26 14:32 | 40.28235 | 20.37885 | 25190 ft | 457 kts | 143° |
| 2026-04-26 14:32 | 40.25745 | 20.40454 | 24521 ft | 455 kts | 143° |
| 2026-04-26 14:32 | 40.23260 | 20.43015 | 23855 ft | 452 kts | 143° |
| 2026-04-26 14:32 | 40.20795 | 20.45556 | 23138 ft | 449 kts | 143° |
| 2026-04-26 14:33 | 40.18353 | 20.48072 | 22500 ft | 444 kts | 143° |
| 2026-04-26 14:33 | 40.15937 | 20.50555 | 21892 ft | 439 kts | 143° |
| 2026-04-26 14:33 | 40.13549 | 20.53002 | 21298 ft | 434 kts | 143° |
| 2026-04-26 14:33 | 40.11182 | 20.55428 | 20725 ft | 430 kts | 143° |
| 2026-04-26 14:34 | 40.08831 | 20.57814 | 20161 ft | 426 kts | 145° |
| 2026-04-26 14:34 | 40.06298 | 20.59765 | 19605 ft | 422 kts | 156° |
| 2026-04-26 14:34 | 40.03555 | 20.61130 | 19032 ft | 419 kts | 162° |
| 2026-04-26 14:34 | 40.00829 | 20.62332 | 18465 ft | 418 kts | 162° |
| 2026-04-26 14:35 | 39.98076 | 20.63547 | 17821 ft | 417 kts | 162° |
| 2026-04-26 14:35 | 39.95319 | 20.64764 | 17207 ft | 415 kts | 162° |
| 2026-04-26 14:35 | 39.92598 | 20.65967 | 16597 ft | 413 kts | 162° |
| 2026-04-26 14:35 | 39.89881 | 20.67174 | 15959 ft | 411 kts | 161° |
| 2026-04-26 14:36 | 39.87165 | 20.68380 | 15321 ft | 410 kts | 161° |
| 2026-04-26 14:36 | 39.84476 | 20.69570 | 14671 ft | 408 kts | 161° |
| 2026-04-26 14:36 | 39.81793 | 20.70753 | 14028 ft | 406 kts | 161° |
| 2026-04-26 14:36 | 39.79129 | 20.71924 | 13332 ft | 404 kts | 161° |
| 2026-04-26 14:37 | 39.76477 | 20.73091 | 12684 ft | 399 kts | 161° |
| 2026-04-26 14:37 | 39.73862 | 20.74240 | 12051 ft | 395 kts | 161° |
| 2026-04-26 14:37 | 39.71272 | 20.75382 | 11400 ft | 390 kts | 160° |
| 2026-04-26 14:37 | 39.68713 | 20.76512 | 10770 ft | 386 kts | 160° |
| 2026-04-26 14:38 | 39.66206 | 20.77617 | 10538 ft | 370 kts | 160° |
| 2026-04-26 14:38 | 39.63855 | 20.78646 | 10462 ft | 353 kts | 160° |
| 2026-04-26 14:38 | 39.61569 | 20.79644 | 10326 ft | 338 kts | 160° |
| 2026-04-26 14:38 | 39.60105 | 20.80284 | 10219 ft | 330 kts | 160° |
| 2026-04-26 14:39 | 39.57254 | 20.81533 | 10032 ft | 317 kts | 160° |
| 2026-04-26 14:39 | 39.55165 | 20.82450 | 9406 ft | 323 kts | 160° |
| 2026-04-26 14:39 | 39.52992 | 20.83407 | 8504 ft | 336 kts | 160° |
| 2026-04-26 14:39 | 39.50752 | 20.84390 | 7921 ft | 338 kts | 160° |
| 2026-04-26 14:40 | 39.48643 | 20.85486 | 7767 ft | 323 kts | 146° |
| 2026-04-26 14:40 | 39.47138 | 20.87499 | 7629 ft | 302 kts | 115° |
| 2026-04-26 14:40 | 39.46667 | 20.90006 | 7318 ft | 282 kts | 86° |
| 2026-04-26 14:40 | 39.47269 | 20.92358 | 6699 ft | 276 kts | 51° |
| 2026-04-26 14:41 | 39.48766 | 20.93811 | 6168 ft | 268 kts | 16° |
| 2026-04-26 14:41 | 39.50569 | 20.93921 | 5866 ft | 254 kts | 348° |
| 2026-04-26 14:41 | 39.52239 | 20.93376 | 5571 ft | 241 kts | 346° |
| 2026-04-26 14:41 | 39.53850 | 20.92923 | 5263 ft | 237 kts | 348° |
| 2026-04-26 14:42 | 39.55479 | 20.92789 | 4948 ft | 232 kts | 358° |
| 2026-04-26 14:42 | 39.57071 | 20.92791 | 4629 ft | 226 kts | 358° |
| 2026-04-26 14:42 | 39.58629 | 20.92743 | 4301 ft | 221 kts | 349° |
| 2026-04-26 14:42 | 39.60036 | 20.92064 | 3998 ft | 213 kts | 324° |
| 2026-04-26 14:43 | 39.61179 | 20.90919 | 3723 ft | 206 kts | 320° |
| 2026-04-26 14:43 | 39.62273 | 20.89801 | 3386 ft | 193 kts | 321° |
| 2026-04-26 14:43 | 39.63284 | 20.88774 | 3101 ft | 176 kts | 322° |
| 2026-04-26 14:43 | 39.64205 | 20.87834 | 2850 ft | 162 kts | 323° |
| 2026-04-26 14:44 | 39.65057 | 20.86966 | 2616 ft | 151 kts | 324° |
| 2026-04-26 14:44 | 39.65871 | 20.86132 | 2412 ft | 147 kts | 323° |
| 2026-04-26 14:44 | 39.66648 | 20.85338 | 2215 ft | 139 kts | 322° |
| 2026-04-26 14:44 | 39.67394 | 20.84576 | 2011 ft | 134 kts | 320° |
| 2026-04-26 14:45 | 39.68086 | 20.83780 | 1803 ft | 132 kts | 333° |
| 2026-04-26 14:45 | 39.68598 | 20.83342 | 1652 ft | 133 kts | 322° |
| 2026-04-26 14:45 | 39.69539 | 20.82393 | 1569 ft | 116 kts | 321° |
| 2026-04-26 14:45 | 39.69995 | 20.81919 | 1567 ft | 43 kts | 323° |
| 2026-04-26 14:46 | 39.70140 | 20.81812 | 1564 ft | 3 kts | 303° |
| 2026-04-26 14:46 | 39.70130 | 20.81809 | 1565 ft | 3 kts | 186° |
| 2026-04-26 14:46 | 39.70094 | 20.81827 | 1565 ft | 7 kts | 144° |
| 2026-04-26 14:46 | 39.70054 | 20.81868 | 1566 ft | 8 kts | 142° |
| 2026-04-26 14:47 | 39.70002 | 20.81917 | 1567 ft | 10 kts | 143° |
| 2026-04-26 14:47 | 39.69938 | 20.81981 | 1567 ft | 13 kts | 142° |
| 2026-04-26 14:47 | 39.69864 | 20.82057 | 1567 ft | 14 kts | 142° |
| 2026-04-26 14:47 | 39.69781 | 20.82143 | 1567 ft | 17 kts | 140° |
| 2026-04-26 14:48 | 39.69681 | 20.82243 | 1566 ft | 19 kts | 143° |
| 2026-04-26 14:48 | 39.69562 | 20.82311 | 1566 ft | 19 kts | 160° |
| 2026-04-26 14:48 | 39.69421 | 20.82342 | 1565 ft | 21 kts | 151° |
| 2026-04-26 14:48 | 39.69344 | 20.82384 | 1565 ft | 7 kts | 239° |
| 2026-04-26 14:49 | 39.69318 | 20.82338 | 1565 ft | 0 kts | 231° |